createdAt,value
2018-07-08T10:41:57.525Z,47.80
2018-07-08T10:44:26.075Z,50.40
2018-07-08T10:46:54.756Z,48.40
2018-07-08T10:49:23.525Z,48.20
2018-07-08T10:51:52.143Z,48.40
2018-07-08T10:54:20.654Z,50.00
2018-07-08T10:56:49.167Z,49.30
2018-07-08T10:59:17.829Z,48.70
2018-07-08T11:01:46.421Z,48.50
2018-07-08T11:04:14.901Z,50.50
2018-07-08T11:06:43.517Z,51.20
2018-07-08T11:09:12.063Z,48.70
2018-07-08T11:11:40.659Z,46.90
2018-07-08T11:14:09.177Z,49.40
2018-07-08T11:16:37.746Z,51.20
2018-07-08T11:19:06.312Z,49.00
2018-07-08T11:21:34.789Z,49.20
2018-07-08T11:24:03.258Z,49.10
2018-07-08T11:26:33.268Z,49.40
2018-07-08T11:29:01.905Z,48.50
2018-07-08T11:31:30.435Z,47.60
2018-07-08T11:33:58.916Z,48.50
2018-07-08T11:36:27.463Z,49.20
2018-07-08T11:38:56.031Z,48.30
2018-07-08T11:41:24.539Z,48.20
2018-07-08T11:43:53.213Z,47.80
2018-07-08T11:46:23.169Z,48.70
2018-07-08T11:48:51.642Z,46.10
2018-07-08T11:51:20.180Z,46.50
2018-07-08T11:53:48.760Z,49.10
2018-07-08T11:56:17.419Z,47.40
2018-07-08T11:58:46.103Z,47.20
2018-07-08T12:01:14.667Z,48.10
2018-07-08T12:03:43.180Z,47.70
2018-07-08T12:06:11.754Z,46.90
2018-07-08T12:08:40.533Z,47.10
2018-07-08T12:11:09.069Z,47.90
2018-07-08T12:13:37.631Z,46.80
2018-07-08T12:16:06.139Z,46.80
2018-07-08T12:18:34.757Z,47.80
2018-07-08T12:21:03.480Z,46.90
2018-07-08T12:23:32.450Z,48.00
2018-07-08T12:26:01.151Z,46.60
2018-07-08T12:30:57.831Z,47.40
2018-07-08T12:33:26.304Z,46.60
2018-07-08T12:35:54.856Z,47.50
2018-07-08T12:38:23.412Z,46.70
2018-07-08T12:40:52.054Z,47.10
2018-07-08T12:43:20.752Z,45.80
2018-07-08T12:45:49.225Z,47.60
2018-07-08T12:48:17.765Z,45.00
2018-07-08T12:50:46.270Z,44.90
2018-07-08T12:53:14.784Z,44.20
2018-07-08T12:55:43.354Z,47.90
2018-07-08T12:58:11.912Z,44.40
2018-07-08T13:00:40.453Z,43.90
2018-07-08T13:03:08.990Z,44.20
2018-07-08T13:05:37.439Z,47.20
2018-07-08T13:08:06.043Z,46.10
2018-07-08T13:10:34.605Z,46.60
2018-07-08T13:13:03.081Z,46.60
2018-07-08T13:15:31.627Z,44.40
2018-07-08T13:18:01.789Z,43.00
2018-07-08T13:20:30.308Z,42.30
2018-07-08T13:22:59.029Z,45.20
2018-07-08T13:25:27.466Z,45.00
2018-07-08T13:27:55.991Z,43.40
2018-07-08T13:30:24.649Z,46.50
2018-07-08T13:32:53.247Z,43.30
2018-07-08T13:35:21.822Z,43.80
2018-07-08T13:37:51.502Z,42.50
2018-07-08T13:42:48.141Z,43.50
2018-07-08T13:45:16.727Z,45.10
2018-07-08T13:47:45.267Z,43.70
2018-07-08T13:50:14.033Z,42.70
2018-07-08T13:52:42.605Z,43.90
2018-07-08T13:55:11.944Z,42.10
2018-07-08T13:57:40.576Z,41.60
2018-07-08T14:00:09.296Z,42.10
2018-07-08T14:02:37.777Z,43.20
2018-07-08T14:05:06.416Z,42.90
2018-07-08T14:07:35.260Z,41.90
2018-07-08T14:10:04.155Z,42.00
2018-07-08T14:12:32.654Z,42.90
2018-07-08T14:15:01.188Z,40.40
2018-07-08T14:17:30.246Z,38.90
2018-07-08T14:19:58.783Z,39.70
2018-07-08T14:22:27.700Z,37.70
2018-07-08T14:24:56.397Z,36.10
2018-07-08T14:27:24.898Z,35.70
2018-07-08T14:29:53.422Z,35.40
2018-07-08T14:32:21.992Z,35.40
2018-07-08T14:34:50.591Z,35.00
2018-07-08T14:37:19.751Z,33.50
2018-07-08T14:39:48.341Z,30.80
2018-07-08T14:42:16.822Z,27.70
2018-07-08T14:44:45.498Z,28.10
2018-07-08T14:47:14.256Z,27.80
2018-07-08T14:49:42.884Z,28.30
2018-07-08T14:52:12.074Z,28.30
2018-07-08T14:57:08.743Z,26.70
2018-07-08T14:59:37.272Z,26.50
2018-07-08T15:02:05.991Z,27.00
2018-07-08T15:04:34.510Z,27.30
2018-07-08T15:07:03.058Z,26.00
2018-07-08T15:09:31.573Z,25.30
2018-07-08T15:12:00.132Z,23.60
2018-07-08T15:14:28.581Z,23.60
2018-07-08T15:16:57.609Z,23.90
2018-07-08T15:19:26.120Z,23.20
2018-07-08T15:21:54.629Z,23.60
2018-07-08T15:24:23.219Z,23.00
2018-07-08T15:26:51.840Z,22.90
2018-07-08T15:29:20.450Z,24.00
2018-07-08T15:31:49.036Z,22.50
2018-07-08T15:34:17.508Z,21.90
2018-07-08T15:36:46.271Z,21.90
2018-07-08T15:39:14.907Z,21.30
2018-07-08T15:41:43.541Z,21.40
2018-07-08T15:44:12.278Z,21.10
2018-07-08T15:46:40.771Z,21.60
2018-07-08T15:49:09.348Z,21.50
2018-07-08T15:51:37.903Z,21.60
2018-07-08T15:54:06.502Z,21.50
2018-07-08T15:56:34.988Z,22.00
2018-07-08T15:59:03.559Z,21.60
2018-07-08T16:01:32.150Z,20.90
2018-07-08T16:04:00.681Z,20.50
2018-07-08T16:06:29.185Z,18.80
2018-07-08T16:08:57.760Z,19.10
2018-07-08T16:11:27.050Z,19.10
2018-07-08T16:13:55.598Z,18.70
2018-07-08T16:16:24.060Z,19.10
2018-07-08T16:18:52.616Z,19.10
2018-07-08T16:21:21.052Z,19.10
2018-07-08T16:23:49.532Z,20.20
2018-07-08T16:26:18.026Z,20.10
2018-07-08T16:28:46.513Z,19.10
2018-07-08T16:31:14.994Z,19.50
2018-07-08T16:33:43.567Z,18.80
2018-07-08T16:36:12.802Z,19.60
2018-07-08T16:38:41.308Z,18.70
2018-07-08T16:41:09.832Z,18.60
2018-07-08T16:43:38.827Z,18.40
2018-07-08T16:46:07.370Z,18.40
2018-07-08T16:51:04.071Z,18.70
2018-07-08T16:53:32.570Z,18.80
2018-07-08T16:56:01.036Z,19.60
2018-07-08T16:58:29.577Z,19.00
2018-07-08T17:00:58.115Z,19.70
2018-07-08T17:03:26.689Z,17.90
2018-07-08T17:05:55.231Z,17.70
2018-07-08T17:10:52.090Z,18.00
2018-07-08T17:13:20.655Z,18.50
2018-07-08T17:18:17.379Z,18.60
2018-07-08T17:20:47.004Z,19.20
2018-07-08T17:23:15.468Z,18.50
2018-07-08T17:25:44.082Z,17.60
2018-07-08T17:28:12.649Z,18.70
2018-07-08T17:30:41.471Z,18.80
2018-07-08T17:33:10.032Z,19.60
2018-07-08T17:35:38.567Z,18.90
2018-07-08T17:38:07.187Z,19.60
2018-07-08T17:40:35.753Z,18.80
2018-07-08T17:43:04.278Z,18.70
2018-07-08T17:45:32.898Z,19.10
2018-07-08T17:48:01.436Z,19.30
2018-07-08T17:50:29.879Z,19.80
2018-07-08T17:52:58.537Z,19.50
2018-07-08T17:55:27.040Z,20.10
2018-07-08T17:57:55.606Z,18.90
2018-07-08T18:00:24.410Z,19.10
2018-07-08T18:02:52.856Z,18.70
2018-07-08T18:05:23.400Z,19.30
2018-07-08T18:07:51.936Z,20.30
2018-07-08T18:10:21.953Z,21.50
2018-07-08T18:12:50.481Z,23.80
2018-07-08T18:15:19.056Z,25.30
2018-07-08T18:17:47.636Z,26.50
2018-07-08T18:20:16.119Z,27.00
2018-07-08T18:22:44.948Z,28.10
2018-07-08T18:25:13.566Z,32.00
2018-07-08T18:27:42.119Z,29.90
2018-07-08T18:30:10.746Z,34.10
2018-07-08T18:32:39.747Z,37.40
2018-07-08T18:35:09.498Z,38.20
2018-07-08T18:37:38.093Z,42.60
2018-07-08T18:40:06.788Z,46.20
2018-07-08T18:42:35.798Z,48.40
2018-07-08T18:45:04.839Z,48.00
2018-07-08T18:47:33.427Z,50.90
2018-07-08T18:52:31.093Z,53.20
2018-07-08T18:54:59.651Z,54.50
2018-07-08T18:57:28.433Z,55.10
2018-07-08T18:59:57.043Z,56.60
2018-07-08T19:02:25.723Z,57.90
2018-07-08T19:04:54.444Z,59.10
2018-07-08T19:07:23.097Z,59.30
2018-07-08T19:09:51.649Z,60.00
2018-07-08T19:12:20.290Z,60.50
2018-07-08T19:14:48.783Z,61.70
2018-07-08T19:17:17.260Z,63.20
2018-07-08T19:19:45.819Z,63.90
2018-07-08T19:22:14.355Z,65.90
2018-07-08T19:24:43.106Z,66.60
2018-07-08T19:27:12.038Z,67.60
2018-07-08T19:29:40.739Z,68.40
2018-07-08T19:32:09.297Z,69.30
2018-07-08T19:34:37.882Z,69.80
2018-07-08T19:37:06.613Z,70.40
2018-07-08T19:39:35.202Z,71.80
2018-07-08T19:42:03.857Z,74.30
2018-07-08T19:44:32.809Z,74.60
2018-07-08T19:47:01.411Z,73.50
2018-07-08T19:49:30.048Z,74.50
2018-07-08T19:52:00.657Z,75.10
2018-07-08T19:54:29.258Z,76.10
2018-07-08T19:56:57.861Z,77.40
2018-07-08T19:59:26.656Z,78.00
2018-07-08T20:01:55.490Z,78.30
2018-07-08T20:04:24.335Z,79.00
2018-07-08T20:06:52.915Z,78.70
2018-07-08T20:09:21.603Z,80.00
2018-07-08T20:11:50.629Z,79.30
2018-07-08T20:14:19.222Z,79.90
2018-07-08T20:16:47.806Z,79.80
2018-07-08T20:19:16.441Z,80.00
2018-07-08T20:21:45.115Z,81.90
2018-07-08T20:24:13.990Z,82.30
2018-07-08T20:26:42.575Z,82.70
2018-07-08T20:29:11.183Z,83.00
2018-07-08T20:31:40.504Z,83.20
2018-07-08T20:34:09.126Z,82.80
2018-07-08T20:36:37.649Z,83.60
2018-07-08T20:39:07.545Z,84.30
2018-07-08T20:41:36.403Z,85.10
2018-07-08T20:44:05.163Z,84.90
2018-07-08T20:46:34.316Z,86.00
2018-07-08T20:49:03.174Z,85.90
2018-07-08T20:51:32.328Z,85.80
2018-07-08T20:54:01.004Z,86.30
2018-07-08T20:56:29.677Z,87.50
2018-07-08T20:58:58.577Z,87.50
2018-07-08T21:01:27.355Z,87.90
2018-07-08T21:03:56.008Z,88.10
2018-07-08T21:06:24.521Z,88.90
2018-07-08T21:08:53.114Z,89.10
2018-07-08T21:11:21.748Z,89.90
2018-07-08T21:13:50.457Z,90.40
2018-07-08T21:16:19.227Z,90.80
2018-07-08T21:18:47.766Z,91.00
2018-07-08T21:21:16.183Z,90.60
2018-07-08T21:23:44.799Z,90.50
2018-07-08T21:26:13.296Z,90.40
2018-07-08T21:28:41.850Z,90.70
2018-07-08T21:31:11.320Z,91.00
2018-07-08T21:33:40.464Z,91.20
2018-07-08T21:36:09.581Z,91.30
2018-07-08T21:38:38.325Z,91.70
2018-07-08T21:41:07.067Z,91.70
2018-07-08T21:43:35.533Z,91.70
2018-07-08T21:46:04.080Z,92.00
2018-07-08T21:48:32.578Z,92.10
2018-07-08T21:51:02.756Z,92.20
2018-07-08T21:53:31.391Z,92.50
2018-07-08T21:55:59.942Z,92.20
2018-07-08T21:58:28.416Z,92.00
2018-07-08T22:01:17.909Z,92.20
2018-07-08T22:03:47.186Z,92.20
2018-07-08T22:06:16.743Z,92.10
2018-07-08T22:08:45.275Z,92.10
2018-07-08T22:11:13.849Z,92.20
2018-07-08T22:13:42.867Z,92.40
2018-07-08T22:16:11.602Z,92.70
2018-07-08T22:18:40.078Z,92.70
2018-07-08T22:21:09.210Z,92.60
2018-07-08T22:23:37.828Z,92.70
2018-07-08T22:26:06.500Z,92.70
2018-07-08T22:28:35.083Z,92.90
2018-07-08T22:31:04.184Z,93.10
2018-07-08T22:33:32.609Z,93.00
2018-07-08T22:36:01.169Z,93.30
2018-07-08T22:38:29.704Z,93.50
2018-07-08T22:40:58.214Z,93.60
2018-07-08T22:43:26.795Z,93.60
2018-07-08T22:45:55.242Z,93.80
2018-07-08T22:48:23.877Z,94.00
2018-07-08T22:50:52.440Z,94.00
2018-07-08T22:53:20.950Z,94.00
2018-07-08T22:55:49.384Z,94.10
2018-07-08T22:58:17.971Z,94.10
2018-07-08T23:00:57.722Z,93.90
2018-07-08T23:03:50.355Z,94.00
2018-07-08T23:06:19.830Z,93.90
2018-07-08T23:08:49.365Z,94.10
2018-07-08T23:11:18.027Z,94.20
2018-07-08T23:13:47.265Z,94.40
2018-07-08T23:16:15.887Z,94.40
2018-07-08T23:18:44.745Z,94.40
2018-07-08T23:21:13.391Z,94.70
2018-07-08T23:23:41.944Z,94.80
2018-07-08T23:26:10.362Z,94.80
2018-07-08T23:28:38.922Z,94.90
2018-07-08T23:31:08.127Z,95.10
2018-07-08T23:33:36.694Z,95.20
2018-07-08T23:36:05.898Z,95.30
2018-07-08T23:38:34.854Z,95.40
2018-07-08T23:41:04.400Z,95.50
2018-07-08T23:43:33.046Z,95.50
2018-07-08T23:46:02.493Z,95.80
2018-07-08T23:48:31.590Z,96.10
2018-07-08T23:51:00.148Z,96.10
2018-07-08T23:53:29.040Z,96.20
2018-07-08T23:55:57.813Z,96.00
2018-07-08T23:58:26.318Z,96.10
